sensor_id;sensor_type;location;lat;lon;timestamp;temperature;humidity
21744;DHT22;11034;48.556;9.342;2023-07-30T00:00:40;17.40;99.90
21744;DHT22;11034;48.556;9.342;2023-07-30T00:03:09;17.40;99.90
21744;DHT22;11034;48.556;9.342;2023-07-30T00:05:37;17.30;99.90
21744;DHT22;11034;48.556;9.342;2023-07-30T00:08:05;17.30;99.90
21744;DHT22;11034;48.556;9.342;2023-07-30T00:10:35;17.40;99.90
21744;DHT22;11034;48.556;9.342;2023-07-30T00:13:03;17.40;99.90
21744;DHT22;11034;48.556;9.342;2023-07-30T00:15:32;17.40;99.90
21744;DHT22;11034;48.556;9.342;2023-07-30T00:18:00;17.40;99.90
21744;DHT22;11034;48.556;9.342;2023-07-30T00:20:28;17.40;99.90
21744;DHT22;11034;48.556;9.342;2023-07-30T00:22:56;17.40;99.90
21744;DHT22;11034;48.556;9.342;2023-07-30T00:25:24;17.40;99.90
21744;DHT22;11034;48.556;9.342;2023-07-30T00:27:54;17.40;99.90
21744;DHT22;11034;48.556;9.342;2023-07-30T00:30:22;17.40;99.90
21744;DHT22;11034;48.556;9.342;2023-07-30T00:32:50;17.50;99.90
21744;DHT22;11034;48.556;9.342;2023-07-30T00:35:18;17.50;99.90
21744;DHT22;11034;48.556;9.342;2023-07-30T00:37:46;17.50;99.90
21744;DHT22;11034;48.556;9.342;2023-07-30T00:40:14;17.50;99.90
21744;DHT22;11034;48.556;9.342;2023-07-30T00:42:42;17.60;99.90
21744;DHT22;11034;48.556;9.342;2023-07-30T00:45:12;17.60;99.90
21744;DHT22;11034;48.556;9.342;2023-07-30T00:47:41;17.60;99.90
21744;DHT22;11034;48.556;9.342;2023-07-30T00:50:10;17.60;99.90
21744;DHT22;11034;48.556;9.342;2023-07-30T00:52:40;17.60;99.90
21744;DHT22;11034;48.556;9.342;2023-07-30T00:55:09;17.60;99.90
21744;DHT22;11034;48.556;9.342;2023-07-30T00:57:37;17.50;99.90
21744;DHT22;11034;48.556;9.342;2023-07-30T01:00:07;17.50;99.90
21744;DHT22;11034;48.556;9.342;2023-07-30T01:02:37;17.40;99.90
21744;DHT22;11034;48.556;9.342;2023-07-30T01:05:06;17.40;99.90
21744;DHT22;11034;48.556;9.342;2023-07-30T01:07:34;17.50;99.90
21744;DHT22;11034;48.556;9.342;2023-07-30T01:10:02;17.60;99.90
21744;DHT22;11034;48.556;9.342;2023-07-30T01:12:31;17.60;99.90
21744;DHT22;11034;48.556;9.342;2023-07-30T01:15:01;17.70;99.90
21744;DHT22;11034;48.556;9.342;2023-07-30T01:17:29;17.80;99.90
21744;DHT22;11034;48.556;9.342;2023-07-30T01:19:58;17.80;99.90
21744;DHT22;11034;48.556;9.342;2023-07-30T01:22:28;17.80;99.90
21744;DHT22;11034;48.556;9.342;2023-07-30T01:24:56;17.80;99.90
21744;DHT22;11034;48.556;9.342;2023-07-30T01:27:26;17.80;99.90
21744;DHT22;11034;48.556;9.342;2023-07-30T01:30:01;17.80;99.90
21744;DHT22;11034;48.556;9.342;2023-07-30T01:32:30;17.80;99.90
21744;DHT22;11034;48.556;9.342;2023-07-30T01:35:00;17.70;99.90
21744;DHT22;11034;48.556;9.342;2023-07-30T01:37:30;17.80;99.90
21744;DHT22;11034;48.556;9.342;2023-07-30T01:39:59;17.80;99.90
21744;DHT22;11034;48.556;9.342;2023-07-30T01:42:28;17.70;99.90
21744;DHT22;11034;48.556;9.342;2023-07-30T01:44:56;17.60;99.90
21744;DHT22;11034;48.556;9.342;2023-07-30T01:47:24;17.60;99.90
21744;DHT22;11034;48.556;9.342;2023-07-30T01:49:52;17.60;99.90
21744;DHT22;11034;48.556;9.342;2023-07-30T01:52:20;17.50;99.90
21744;DHT22;11034;48.556;9.342;2023-07-30T01:54:50;17.50;99.90
21744;DHT22;11034;48.556;9.342;2023-07-30T01:57:18;17.50;99.90
21744;DHT22;11034;48.556;9.342;2023-07-30T01:59:46;17.40;99.90
21744;DHT22;11034;48.556;9.342;2023-07-30T02:02:14;17.40;99.90
21744;DHT22;11034;48.556;9.342;2023-07-30T02:04:42;17.30;99.90
21744;DHT22;11034;48.556;9.342;2023-07-30T02:07:10;17.30;99.90
21744;DHT22;11034;48.556;9.342;2023-07-30T02:09:38;17.30;99.90
21744;DHT22;11034;48.556;9.342;2023-07-30T02:12:08;17.20;99.90
21744;DHT22;11034;48.556;9.342;2023-07-30T02:14:36;17.10;99.90
21744;DHT22;11034;48.556;9.342;2023-07-30T02:17:05;17.10;99.90
21744;DHT22;11034;48.556;9.342;2023-07-30T02:19:33;17.10;99.90
21744;DHT22;11034;48.556;9.342;2023-07-30T02:22:01;17.10;99.90
21744;DHT22;11034;48.556;9.342;2023-07-30T02:24:29;17.10;99.90
21744;DHT22;11034;48.556;9.342;2023-07-30T02:26:57;17.00;99.90
21744;DHT22;11034;48.556;9.342;2023-07-30T02:29:27;17.00;99.90
21744;DHT22;11034;48.556;9.342;2023-07-30T02:31:55;16.90;99.90
21744;DHT22;11034;48.556;9.342;2023-07-30T02:34:24;17.00;99.90
21744;DHT22;11034;48.556;9.342;2023-07-30T02:36:52;16.90;99.90
21744;DHT22;11034;48.556;9.342;2023-07-30T02:39:20;17.00;99.90
21744;DHT22;11034;48.556;9.342;2023-07-30T02:41:48;17.00;99.90
21744;DHT22;11034;48.556;9.342;2023-07-30T02:44:16;17.00;99.90
21744;DHT22;11034;48.556;9.342;2023-07-30T02:46:46;17.00;99.90
21744;DHT22;11034;48.556;9.342;2023-07-30T02:49:14;17.00;99.90
21744;DHT22;11034;48.556;9.342;2023-07-30T02:51:42;17.00;99.90
21744;DHT22;11034;48.556;9.342;2023-07-30T02:54:15;17.10;99.90
21744;DHT22;11034;48.556;9.342;2023-07-30T02:56:43;17.10;99.90
21744;DHT22;11034;48.556;9.342;2023-07-30T02:59:15;17.20;99.90
21744;DHT22;11034;48.556;9.342;2023-07-30T03:01:43;17.20;99.90
21744;DHT22;11034;48.556;9.342;2023-07-30T03:04:13;17.30;99.90
21744;DHT22;11034;48.556;9.342;2023-07-30T03:06:41;17.30;99.90
21744;DHT22;11034;48.556;9.342;2023-07-30T03:09:09;17.30;99.90
21744;DHT22;11034;48.556;9.342;2023-07-30T03:11:37;17.20;99.90
21744;DHT22;11034;48.556;9.342;2023-07-30T03:14:05;17.10;99.90
21744;DHT22;11034;48.556;9.342;2023-07-30T03:16:33;17.10;99.90
21744;DHT22;11034;48.556;9.342;2023-07-30T03:19:02;17.10;99.90
21744;DHT22;11034;48.556;9.342;2023-07-30T03:21:31;17.10;99.90
21744;DHT22;11034;48.556;9.342;2023-07-30T03:23:59;17.10;99.90
21744;DHT22;11034;48.556;9.342;2023-07-30T03:26:27;17.10;99.90
21744;DHT22;11034;48.556;9.342;2023-07-30T03:28:55;17.00;99.90
21744;DHT22;11034;48.556;9.342;2023-07-30T03:31:23;17.00;99.90
21744;DHT22;11034;48.556;9.342;2023-07-30T03:33:53;17.00;99.90
21744;DHT22;11034;48.556;9.342;2023-07-30T03:36:21;17.00;99.90
21744;DHT22;11034;48.556;9.342;2023-07-30T03:38:50;17.10;99.90
21744;DHT22;11034;48.556;9.342;2023-07-30T03:41:18;17.10;99.90
21744;DHT22;11034;48.556;9.342;2023-07-30T03:43:47;17.10;99.90
21744;DHT22;11034;48.556;9.342;2023-07-30T03:46:15;17.10;99.90
21744;DHT22;11034;48.556;9.342;2023-07-30T03:48:43;17.10;99.90
21744;DHT22;11034;48.556;9.342;2023-07-30T03:51:11;17.10;99.90
21744;DHT22;11034;48.556;9.342;2023-07-30T03:53:39;17.20;99.90
21744;DHT22;11034;48.556;9.342;2023-07-30T03:56:10;17.20;99.90
21744;DHT22;11034;48.556;9.342;2023-07-30T03:58:39;17.30;99.90
21744;DHT22;11034;48.556;9.342;2023-07-30T04:01:07;17.30;99.90
21744;DHT22;11034;48.556;9.342;2023-07-30T04:03:35;17.30;99.90
21744;DHT22;11034;48.556;9.342;2023-07-30T04:06:04;17.30;99.90
21744;DHT22;11034;48.556;9.342;2023-07-30T04:08:32;17.40;99.90
21744;DHT22;11034;48.556;9.342;2023-07-30T04:11:00;17.30;99.90
21744;DHT22;11034;48.556;9.342;2023-07-30T04:13:29;17.30;99.90
21744;DHT22;11034;48.556;9.342;2023-07-30T04:15:57;17.30;99.90
21744;DHT22;11034;48.556;9.342;2023-07-30T04:18:28;17.40;99.90
21744;DHT22;11034;48.556;9.342;2023-07-30T04:20:56;17.40;99.90
21744;DHT22;11034;48.556;9.342;2023-07-30T04:23:24;17.40;99.90
21744;DHT22;11034;48.556;9.342;2023-07-30T04:25:52;17.50;99.90
21744;DHT22;11034;48.556;9.342;2023-07-30T04:28:20;17.50;99.90
21744;DHT22;11034;48.556;9.342;2023-07-30T04:30:50;17.50;99.90
21744;DHT22;11034;48.556;9.342;2023-07-30T04:33:18;17.60;99.90
21744;DHT22;11034;48.556;9.342;2023-07-30T04:35:46;17.60;99.90
21744;DHT22;11034;48.556;9.342;2023-07-30T04:38:14;17.60;99.90
21744;DHT22;11034;48.556;9.342;2023-07-30T04:40:42;17.60;99.90
21744;DHT22;11034;48.556;9.342;2023-07-30T04:43:10;17.60;99.90
21744;DHT22;11034;48.556;9.342;2023-07-30T04:45:38;17.60;99.90
21744;DHT22;11034;48.556;9.342;2023-07-30T04:48:08;17.60;99.90
21744;DHT22;11034;48.556;9.342;2023-07-30T04:50:36;17.60;99.90
21744;DHT22;11034;48.556;9.342;2023-07-30T04:53:06;17.60;99.90
21744;DHT22;11034;48.556;9.342;2023-07-30T04:55:34;17.60;99.90
21744;DHT22;11034;48.556;9.342;2023-07-30T04:58:02;17.60;99.90
21744;DHT22;11034;48.556;9.342;2023-07-30T05:00:30;17.60;99.90
21744;DHT22;11034;48.556;9.342;2023-07-30T05:02:58;17.60;99.90
21744;DHT22;11034;48.556;9.342;2023-07-30T05:05:28;17.60;99.90
21744;DHT22;11034;48.556;9.342;2023-07-30T05:07:56;17.70;99.90
21744;DHT22;11034;48.556;9.342;2023-07-30T05:10:24;17.70;99.90
21744;DHT22;11034;48.556;9.342;2023-07-30T05:12:52;17.90;99.90
21744;DHT22;11034;48.556;9.342;2023-07-30T05:15:20;18.00;99.90
21744;DHT22;11034;48.556;9.342;2023-07-30T05:17:48;19.10;99.90
21744;DHT22;11034;48.556;9.342;2023-07-30T05:20:16;20.60;99.90
21744;DHT22;11034;48.556;9.342;2023-07-30T05:22:45;21.60;99.90
21744;DHT22;11034;48.556;9.342;2023-07-30T05:25:14;21.80;99.90
21744;DHT22;11034;48.556;9.342;2023-07-30T05:27:42;22.10;99.90
21744;DHT22;11034;48.556;9.342;2023-07-30T05:30:11;21.50;99.90
21744;DHT22;11034;48.556;9.342;2023-07-30T05:32:39;20.60;99.90
21744;DHT22;11034;48.556;9.342;2023-07-30T05:35:07;19.90;99.90
21744;DHT22;11034;48.556;9.342;2023-07-30T05:37:35;19.30;99.90
21744;DHT22;11034;48.556;9.342;2023-07-30T05:40:06;19.10;99.90
21744;DHT22;11034;48.556;9.342;2023-07-30T05:42:35;18.90;99.90
21744;DHT22;11034;48.556;9.342;2023-07-30T05:45:03;18.70;99.90
21744;DHT22;11034;48.556;9.342;2023-07-30T05:47:31;18.60;99.90
21744;DHT22;11034;48.556;9.342;2023-07-30T05:49:59;18.60;99.90
21744;DHT22;11034;48.556;9.342;2023-07-30T05:52:27;18.60;99.90
21744;DHT22;11034;48.556;9.342;2023-07-30T05:54:55;18.50;99.90
21744;DHT22;11034;48.556;9.342;2023-07-30T05:57:25;18.50;99.90
21744;DHT22;11034;48.556;9.342;2023-07-30T05:59:53;18.90;99.90
21744;DHT22;11034;48.556;9.342;2023-07-30T06:02:22;19.00;99.90
21744;DHT22;11034;48.556;9.342;2023-07-30T06:04:50;19.00;99.90
21744;DHT22;11034;48.556;9.342;2023-07-30T06:07:18;19.00;99.90
21744;DHT22;11034;48.556;9.342;2023-07-30T06:09:45;19.00;99.90
21744;DHT22;11034;48.556;9.342;2023-07-30T06:12:13;19.00;99.90
21744;DHT22;11034;48.556;9.342;2023-07-30T06:14:43;19.10;99.90
21744;DHT22;11034;48.556;9.342;2023-07-30T06:17:11;19.20;99.90
21744;DHT22;11034;48.556;9.342;2023-07-30T06:19:39;19.10;99.90
21744;DHT22;11034;48.556;9.342;2023-07-30T06:22:07;19.20;99.90
21744;DHT22;11034;48.556;9.342;2023-07-30T06:24:35;19.50;99.90
21744;DHT22;11034;48.556;9.342;2023-07-30T06:27:04;19.50;99.90
21744;DHT22;11034;48.556;9.342;2023-07-30T06:29:33;19.70;99.90
21744;DHT22;11034;48.556;9.342;2023-07-30T06:32:02;19.40;99.90
21744;DHT22;11034;48.556;9.342;2023-07-30T06:34:30;19.40;99.90
21744;DHT22;11034;48.556;9.342;2023-07-30T06:36:59;19.20;99.90
21744;DHT22;11034;48.556;9.342;2023-07-30T06:39:27;19.10;99.90
21744;DHT22;11034;48.556;9.342;2023-07-30T06:41:55;19.10;99.90
21744;DHT22;11034;48.556;9.342;2023-07-30T06:44:23;19.20;99.90
21744;DHT22;11034;48.556;9.342;2023-07-30T06:46:52;19.30;99.90
21744;DHT22;11034;48.556;9.342;2023-07-30T06:49:22;19.20;99.90
21744;DHT22;11034;48.556;9.342;2023-07-30T06:51:50;19.30;99.90
21744;DHT22;11034;48.556;9.342;2023-07-30T06:54:19;19.50;99.90
21744;DHT22;11034;48.556;9.342;2023-07-30T06:56:47;19.40;99.90
21744;DHT22;11034;48.556;9.342;2023-07-30T06:59:16;19.50;99.90
21744;DHT22;11034;48.556;9.342;2023-07-30T07:01:44;19.40;99.90
21744;DHT22;11034;48.556;9.342;2023-07-30T07:04:12;19.60;99.90
21744;DHT22;11034;48.556;9.342;2023-07-30T07:06:42;20.10;99.90
21744;DHT22;11034;48.556;9.342;2023-07-30T07:09:10;20.80;99.90
21744;DHT22;11034;48.556;9.342;2023-07-30T07:11:38;21.30;99.90
21744;DHT22;11034;48.556;9.342;2023-07-30T07:14:06;21.80;99.90
21744;DHT22;11034;48.556;9.342;2023-07-30T07:16:34;22.30;99.90
21744;DHT22;11034;48.556;9.342;2023-07-30T07:19:02;22.80;99.90
21744;DHT22;11034;48.556;9.342;2023-07-30T07:21:30;22.90;99.90
21744;DHT22;11034;48.556;9.342;2023-07-30T07:24:00;22.80;99.90
21744;DHT22;11034;48.556;9.342;2023-07-30T07:26:28;23.00;99.90
21744;DHT22;11034;48.556;9.342;2023-07-30T07:28:56;23.40;99.90
21744;DHT22;11034;48.556;9.342;2023-07-30T07:31:25;23.30;99.90
21744;DHT22;11034;48.556;9.342;2023-07-30T07:33:54;22.70;99.90
21744;DHT22;11034;48.556;9.342;2023-07-30T07:36:22;22.00;99.90
21744;DHT22;11034;48.556;9.342;2023-07-30T07:38:50;21.50;99.90
21744;DHT22;11034;48.556;9.342;2023-07-30T07:41:19;21.10;99.90
21744;DHT22;11034;48.556;9.342;2023-07-30T07:43:48;21.20;99.90
21744;DHT22;11034;48.556;9.342;2023-07-30T07:46:16;21.20;99.90
21744;DHT22;11034;48.556;9.342;2023-07-30T07:48:44;20.80;99.90
21744;DHT22;11034;48.556;9.342;2023-07-30T07:51:12;20.30;99.90
21744;DHT22;11034;48.556;9.342;2023-07-30T07:53:40;19.50;99.90
21744;DHT22;11034;48.556;9.342;2023-07-30T07:56:08;18.50;99.90
21744;DHT22;11034;48.556;9.342;2023-07-30T07:58:38;17.60;99.90
21744;DHT22;11034;48.556;9.342;2023-07-30T08:01:06;17.10;99.90
21744;DHT22;11034;48.556;9.342;2023-07-30T08:03:34;16.80;99.90
21744;DHT22;11034;48.556;9.342;2023-07-30T08:06:02;16.70;99.90
21744;DHT22;11034;48.556;9.342;2023-07-30T08:08:30;16.70;99.90
21744;DHT22;11034;48.556;9.342;2023-07-30T08:10:58;16.80;99.90
21744;DHT22;11034;48.556;9.342;2023-07-30T08:13:26;16.90;99.90
21744;DHT22;11034;48.556;9.342;2023-07-30T08:15:56;17.00;99.90
21744;DHT22;11034;48.556;9.342;2023-07-30T08:18:24;17.10;99.90
21744;DHT22;11034;48.556;9.342;2023-07-30T08:20:52;17.20;99.90
21744;DHT22;11034;48.556;9.342;2023-07-30T08:23:20;17.40;99.90
21744;DHT22;11034;48.556;9.342;2023-07-30T08:25:48;17.60;99.90
21744;DHT22;11034;48.556;9.342;2023-07-30T08:28:18;18.10;99.90
21744;DHT22;11034;48.556;9.342;2023-07-30T08:30:47;19.10;99.90
21744;DHT22;11034;48.556;9.342;2023-07-30T08:33:16;19.90;99.90
21744;DHT22;11034;48.556;9.342;2023-07-30T08:35:44;20.60;99.90
21744;DHT22;11034;48.556;9.342;2023-07-30T08:38:12;20.80;99.90
21744;DHT22;11034;48.556;9.342;2023-07-30T08:40:40;20.70;99.90
21744;DHT22;11034;48.556;9.342;2023-07-30T08:43:09;20.90;99.90
21744;DHT22;11034;48.556;9.342;2023-07-30T08:45:37;21.40;99.90
21744;DHT22;11034;48.556;9.342;2023-07-30T08:48:05;21.60;99.90
21744;DHT22;11034;48.556;9.342;2023-07-30T08:50:35;21.70;99.90
21744;DHT22;11034;48.556;9.342;2023-07-30T08:53:06;21.80;99.90
21744;DHT22;11034;48.556;9.342;2023-07-30T08:55:34;21.70;99.90
21744;DHT22;11034;48.556;9.342;2023-07-30T08:58:04;21.80;99.90
21744;DHT22;11034;48.556;9.342;2023-07-30T09:00:35;21.80;99.90
21744;DHT22;11034;48.556;9.342;2023-07-30T09:03:05;21.80;99.90
21744;DHT22;11034;48.556;9.342;2023-07-30T09:05:35;21.80;99.90
21744;DHT22;11034;48.556;9.342;2023-07-30T09:08:04;21.70;99.90
21744;DHT22;11034;48.556;9.342;2023-07-30T09:10:33;21.80;99.90
21744;DHT22;11034;48.556;9.342;2023-07-30T09:13:02;22.20;99.90
21744;DHT22;11034;48.556;9.342;2023-07-30T09:15:31;22.50;99.90
21744;DHT22;11034;48.556;9.342;2023-07-30T09:18:00;22.40;99.90
21744;DHT22;11034;48.556;9.342;2023-07-30T09:20:38;22.20;99.90
21744;DHT22;11034;48.556;9.342;2023-07-30T09:23:07;22.20;99.90
21744;DHT22;11034;48.556;9.342;2023-07-30T09:25:35;22.30;99.90
21744;DHT22;11034;48.556;9.342;2023-07-30T09:28:05;22.20;99.90
21744;DHT22;11034;48.556;9.342;2023-07-30T09:30:33;22.20;99.90
21744;DHT22;11034;48.556;9.342;2023-07-30T09:33:01;22.00;99.90
21744;DHT22;11034;48.556;9.342;2023-07-30T09:35:32;21.70;99.90
21744;DHT22;11034;48.556;9.342;2023-07-30T09:38:03;21.30;99.90
21744;DHT22;11034;48.556;9.342;2023-07-30T09:40:32;20.90;99.90
21744;DHT22;11034;48.556;9.342;2023-07-30T09:43:02;20.70;99.90
21744;DHT22;11034;48.556;9.342;2023-07-30T09:45:33;20.40;99.90
21744;DHT22;11034;48.556;9.342;2023-07-30T09:48:04;20.00;99.90
21744;DHT22;11034;48.556;9.342;2023-07-30T09:50:33;19.60;99.90
21744;DHT22;11034;48.556;9.342;2023-07-30T09:53:04;19.30;99.90
21744;DHT22;11034;48.556;9.342;2023-07-30T09:55:32;19.00;99.90
21744;DHT22;11034;48.556;9.342;2023-07-30T09:58:00;18.70;99.90
21744;DHT22;11034;48.556;9.342;2023-07-30T10:00:29;18.60;99.90
21744;DHT22;11034;48.556;9.342;2023-07-30T10:02:58;18.40;99.90
21744;DHT22;11034;48.556;9.342;2023-07-30T10:05:32;18.20;99.90
21744;DHT22;11034;48.556;9.342;2023-07-30T10:08:07;18.30;99.90
21744;DHT22;11034;48.556;9.342;2023-07-30T10:10:37;18.10;99.90
21744;DHT22;11034;48.556;9.342;2023-07-30T10:13:09;18.00;99.90
21744;DHT22;11034;48.556;9.342;2023-07-30T10:15:38;18.10;99.90
21744;DHT22;11034;48.556;9.342;2023-07-30T10:18:06;18.40;99.90
21744;DHT22;11034;48.556;9.342;2023-07-30T10:20:36;18.60;99.90
21744;DHT22;11034;48.556;9.342;2023-07-30T10:23:05;18.80;99.90
21744;DHT22;11034;48.556;9.342;2023-07-30T10:25:45;19.20;99.90
21744;DHT22;11034;48.556;9.342;2023-07-30T10:28:31;19.50;99.90
21744;DHT22;11034;48.556;9.342;2023-07-30T10:31:01;19.90;99.90
21744;DHT22;11034;48.556;9.342;2023-07-30T10:33:47;20.40;99.90
21744;DHT22;11034;48.556;9.342;2023-07-30T10:36:30;20.40;99.90
21744;DHT22;11034;48.556;9.342;2023-07-30T10:39:10;21.00;99.90
21744;DHT22;11034;48.556;9.342;2023-07-30T10:41:38;21.20;99.90
21744;DHT22;11034;48.556;9.342;2023-07-30T10:44:18;21.50;99.90
21744;DHT22;11034;48.556;9.342;2023-07-30T10:46:46;21.60;99.90
21744;DHT22;11034;48.556;9.342;2023-07-30T10:49:14;21.60;99.90
21744;DHT22;11034;48.556;9.342;2023-07-30T10:51:43;21.70;99.90
21744;DHT22;11034;48.556;9.342;2023-07-30T10:54:12;21.50;99.90
21744;DHT22;11034;48.556;9.342;2023-07-30T10:56:42;21.50;99.90
21744;DHT22;11034;48.556;9.342;2023-07-30T10:59:12;21.30;99.90
21744;DHT22;11034;48.556;9.342;2023-07-30T11:01:41;21.20;99.90
21744;DHT22;11034;48.556;9.342;2023-07-30T11:04:11;21.60;99.90
21744;DHT22;11034;48.556;9.342;2023-07-30T11:06:39;21.90;99.90
21744;DHT22;11034;48.556;9.342;2023-07-30T11:09:19;22.20;99.90
21744;DHT22;11034;48.556;9.342;2023-07-30T11:11:49;22.40;99.90
21744;DHT22;11034;48.556;9.342;2023-07-30T11:14:17;22.20;99.90
21744;DHT22;11034;48.556;9.342;2023-07-30T11:16:49;22.00;99.90
21744;DHT22;11034;48.556;9.342;2023-07-30T11:19:18;22.00;99.90
21744;DHT22;11034;48.556;9.342;2023-07-30T11:21:47;22.20;99.90
21744;DHT22;11034;48.556;9.342;2023-07-30T11:24:21;22.20;99.90
21744;DHT22;11034;48.556;9.342;2023-07-30T11:26:57;22.10;99.90
21744;DHT22;11034;48.556;9.342;2023-07-30T11:29:26;22.20;99.90
21744;DHT22;11034;48.556;9.342;2023-07-30T11:31:56;22.50;99.90
21744;DHT22;11034;48.556;9.342;2023-07-30T11:34:26;22.50;99.90
21744;DHT22;11034;48.556;9.342;2023-07-30T11:36:55;22.20;99.90
21744;DHT22;11034;48.556;9.342;2023-07-30T11:39:25;22.30;99.90
21744;DHT22;11034;48.556;9.342;2023-07-30T11:41:55;22.40;99.90
21744;DHT22;11034;48.556;9.342;2023-07-30T11:44:33;22.70;99.90
21744;DHT22;11034;48.556;9.342;2023-07-30T11:47:02;22.70;99.90
21744;DHT22;11034;48.556;9.342;2023-07-30T11:49:32;22.70;99.90
21744;DHT22;11034;48.556;9.342;2023-07-30T11:52:06;22.60;99.90
21744;DHT22;11034;48.556;9.342;2023-07-30T11:54:37;22.70;99.90
21744;DHT22;11034;48.556;9.342;2023-07-30T11:57:10;22.90;99.90
21744;DHT22;11034;48.556;9.342;2023-07-30T11:59:38;22.90;99.90
21744;DHT22;11034;48.556;9.342;2023-07-30T12:02:09;23.00;99.90
21744;DHT22;11034;48.556;9.342;2023-07-30T12:04:44;23.10;99.90
21744;DHT22;11034;48.556;9.342;2023-07-30T12:07:27;23.10;99.90
21744;DHT22;11034;48.556;9.342;2023-07-30T12:10:06;23.00;99.90
21744;DHT22;11034;48.556;9.342;2023-07-30T12:12:35;22.70;99.90
21744;DHT22;11034;48.556;9.342;2023-07-30T12:15:13;22.80;99.90
21744;DHT22;11034;48.556;9.342;2023-07-30T12:17:41;22.90;99.90
21744;DHT22;11034;48.556;9.342;2023-07-30T12:20:11;22.90;99.90
21744;DHT22;11034;48.556;9.342;2023-07-30T12:22:41;22.60;99.90
21744;DHT22;11034;48.556;9.342;2023-07-30T12:25:12;22.60;99.90
21744;DHT22;11034;48.556;9.342;2023-07-30T12:27:41;22.80;99.90
21744;DHT22;11034;48.556;9.342;2023-07-30T12:30:10;22.80;99.90
21744;DHT22;11034;48.556;9.342;2023-07-30T12:32:38;22.70;99.90
21744;DHT22;11034;48.556;9.342;2023-07-30T12:35:08;22.80;99.90
21744;DHT22;11034;48.556;9.342;2023-07-30T12:37:37;22.80;99.90
21744;DHT22;11034;48.556;9.342;2023-07-30T12:40:07;22.80;99.90
21744;DHT22;11034;48.556;9.342;2023-07-30T12:42:36;22.60;99.90
21744;DHT22;11034;48.556;9.342;2023-07-30T12:45:05;22.60;99.90
21744;DHT22;11034;48.556;9.342;2023-07-30T12:47:33;22.80;99.90
21744;DHT22;11034;48.556;9.342;2023-07-30T12:50:04;22.90;99.90
21744;DHT22;11034;48.556;9.342;2023-07-30T12:52:33;23.00;99.90
21744;DHT22;11034;48.556;9.342;2023-07-30T12:55:01;23.00;99.90
21744;DHT22;11034;48.556;9.342;2023-07-30T12:57:30;23.10;99.90
21744;DHT22;11034;48.556;9.342;2023-07-30T13:00:00;23.30;99.90
21744;DHT22;11034;48.556;9.342;2023-07-30T13:02:28;23.30;99.90
21744;DHT22;11034;48.556;9.342;2023-07-30T13:04:56;23.40;99.90
21744;DHT22;11034;48.556;9.342;2023-07-30T13:07:24;23.40;99.90
21744;DHT22;11034;48.556;9.342;2023-07-30T13:10:02;23.60;99.90
21744;DHT22;11034;48.556;9.342;2023-07-30T13:12:31;23.80;99.90
21744;DHT22;11034;48.556;9.342;2023-07-30T13:15:00;23.70;99.90
21744;DHT22;11034;48.556;9.342;2023-07-30T13:17:29;23.70;99.90
21744;DHT22;11034;48.556;9.342;2023-07-30T13:19:58;23.50;99.90
21744;DHT22;11034;48.556;9.342;2023-07-30T13:22:26;23.40;99.90
21744;DHT22;11034;48.556;9.342;2023-07-30T13:24:54;23.60;99.90
21744;DHT22;11034;48.556;9.342;2023-07-30T13:27:22;23.50;99.90
21744;DHT22;11034;48.556;9.342;2023-07-30T13:29:50;23.30;99.90
21744;DHT22;11034;48.556;9.342;2023-07-30T13:32:20;23.10;99.90
21744;DHT22;11034;48.556;9.342;2023-07-30T13:34:48;23.00;99.90
21744;DHT22;11034;48.556;9.342;2023-07-30T13:37:16;22.70;99.90
21744;DHT22;11034;48.556;9.342;2023-07-30T13:39:44;22.50;99.90
21744;DHT22;11034;48.556;9.342;2023-07-30T13:42:12;22.30;99.90
21744;DHT22;11034;48.556;9.342;2023-07-30T13:44:40;22.60;99.90
21744;DHT22;11034;48.556;9.342;2023-07-30T13:47:08;23.00;99.90
21744;DHT22;11034;48.556;9.342;2023-07-30T13:49:42;23.00;99.90
21744;DHT22;11034;48.556;9.342;2023-07-30T13:52:10;23.10;99.90
21744;DHT22;11034;48.556;9.342;2023-07-30T13:54:38;22.90;99.90
21744;DHT22;11034;48.556;9.342;2023-07-30T13:57:08;22.70;99.90
21744;DHT22;11034;48.556;9.342;2023-07-30T13:59:36;22.60;99.90
21744;DHT22;11034;48.556;9.342;2023-07-30T14:02:06;22.80;99.90
21744;DHT22;11034;48.556;9.342;2023-07-30T14:04:34;22.70;99.90
21744;DHT22;11034;48.556;9.342;2023-07-30T14:07:04;22.80;99.90
21744;DHT22;11034;48.556;9.342;2023-07-30T14:09:33;22.90;99.90
21744;DHT22;11034;48.556;9.342;2023-07-30T14:12:03;23.00;99.90
21744;DHT22;11034;48.556;9.342;2023-07-30T14:14:31;23.10;99.90
21744;DHT22;11034;48.556;9.342;2023-07-30T14:16:59;23.20;99.90
21744;DHT22;11034;48.556;9.342;2023-07-30T14:19:33;23.20;99.90
21744;DHT22;11034;48.556;9.342;2023-07-30T14:22:01;23.20;99.90
21744;DHT22;11034;48.556;9.342;2023-07-30T14:24:31;23.30;99.90
21744;DHT22;11034;48.556;9.342;2023-07-30T14:26:59;23.20;99.90
21744;DHT22;11034;48.556;9.342;2023-07-30T14:29:27;23.40;99.90
21744;DHT22;11034;48.556;9.342;2023-07-30T14:31:55;23.30;99.90
21744;DHT22;11034;48.556;9.342;2023-07-30T14:34:23;23.30;99.90
21744;DHT22;11034;48.556;9.342;2023-07-30T14:36:51;23.10;99.90
21744;DHT22;11034;48.556;9.342;2023-07-30T14:39:19;22.90;99.90
21744;DHT22;11034;48.556;9.342;2023-07-30T14:41:48;22.80;99.90
21744;DHT22;11034;48.556;9.342;2023-07-30T14:44:16;22.70;99.90
21744;DHT22;11034;48.556;9.342;2023-07-30T14:46:45;22.50;99.90
21744;DHT22;11034;48.556;9.342;2023-07-30T14:49:13;22.50;99.90
21744;DHT22;11034;48.556;9.342;2023-07-30T14:51:41;22.80;99.90
21744;DHT22;11034;48.556;9.342;2023-07-30T14:54:10;23.00;99.90
21744;DHT22;11034;48.556;9.342;2023-07-30T14:56:38;22.80;99.90
21744;DHT22;11034;48.556;9.342;2023-07-30T14:59:08;22.60;99.90
21744;DHT22;11034;48.556;9.342;2023-07-30T15:01:36;22.70;99.90
21744;DHT22;11034;48.556;9.342;2023-07-30T15:04:04;22.90;99.90
21744;DHT22;11034;48.556;9.342;2023-07-30T15:06:33;22.90;99.90
21744;DHT22;11034;48.556;9.342;2023-07-30T15:09:01;23.20;99.90
21744;DHT22;11034;48.556;9.342;2023-07-30T15:11:29;23.10;99.90
21744;DHT22;11034;48.556;9.342;2023-07-30T15:13:57;22.90;99.90
21744;DHT22;11034;48.556;9.342;2023-07-30T15:16:27;22.70;99.90
21744;DHT22;11034;48.556;9.342;2023-07-30T15:18:55;22.40;99.90
21744;DHT22;11034;48.556;9.342;2023-07-30T15:21:25;22.30;99.90
21744;DHT22;11034;48.556;9.342;2023-07-30T15:23:53;22.10;99.90
21744;DHT22;11034;48.556;9.342;2023-07-30T15:26:21;22.30;99.90
21744;DHT22;11034;48.556;9.342;2023-07-30T15:28:49;22.40;99.90
21744;DHT22;11034;48.556;9.342;2023-07-30T15:31:17;22.40;99.90
21744;DHT22;11034;48.556;9.342;2023-07-30T15:33:47;22.30;99.90
21744;DHT22;11034;48.556;9.342;2023-07-30T15:36:15;22.30;99.90
21744;DHT22;11034;48.556;9.342;2023-07-30T15:38:43;22.10;99.90
21744;DHT22;11034;48.556;9.342;2023-07-30T15:41:11;22.10;99.90